Time;durP1;ratioP1;P1;durP2;ratioP2;P2;SDS_P1;SDS_P2;PMS_P1;PMS_P2;Temp;Humidity;BMP_temperature;BMP_pressure;BME280_temperature;BME280_humidity;BME280_pressure;Samples;Min_cycle;Max_cycle;Signal;HPM_P1;HPM_P2
2022/05/16 00:00:13;;;;;;;18.52;7.05;;;13.50;99.90;;;;;;5014060;28;20397;-85
2022/05/16 00:02:39;;;;;;;17.48;6.75;;;13.50;99.90;;;;;;4996802;28;20406;-85
2022/05/16 00:05:06;;;;;;;14.45;6.05;;;13.40;99.90;;;;;;5014053;28;20045;-84
2022/05/16 00:07:32;;;;;;;16.30;6.20;;;13.40;99.90;;;;;;4996500;28;20058;-85
2022/05/16 00:09:58;;;;;;;16.52;6.50;;;13.40;99.90;;;;;;4996556;28;20042;-85
2022/05/16 00:12:24;;;;;;;15.98;7.30;;;13.40;99.90;;;;;;4996476;28;20052;-85
2022/05/16 00:14:50;;;;;;;17.17;6.68;;;13.30;99.90;;;;;;4996325;28;20096;-85
2022/05/16 00:17:16;;;;;;;17.90;6.63;;;13.30;99.90;;;;;;5012682;28;20053;-85
2022/05/16 00:19:42;;;;;;;15.15;6.55;;;13.30;99.90;;;;;;5013921;28;20092;-85
2022/05/16 00:22:08;;;;;;;17.15;6.47;;;13.30;99.90;;;;;;5013981;28;20088;-84
2022/05/16 00:24:34;;;;;;;24.25;8.05;;;13.20;99.90;;;;;;4996274;28;20079;-84
2022/05/16 00:27:00;;;;;;;17.17;6.80;;;13.10;99.90;;;;;;5013900;28;20073;-84
2022/05/16 00:29:27;;;;;;;15.70;6.50;;;13.10;99.90;;;;;;4996427;28;20050;-84
2022/05/16 00:31:55;;;;;;;20.10;7.28;;;13.10;99.90;;;;;;5013900;28;20112;-85
2022/05/16 00:34:21;;;;;;;19.20;7.07;;;13.10;99.90;;;;;;4996209;28;20454;-85
2022/05/16 00:36:47;;;;;;;15.77;7.10;;;13.00;99.90;;;;;;4995849;28;20383;-85
2022/05/16 00:39:17;;;;;;;17.77;7.45;;;13.00;99.90;;;;;;4996100;28;20057;-85
2022/05/16 00:41:44;;;;;;;18.27;6.93;;;13.00;99.90;;;;;;5013951;28;20049;-85
2022/05/16 00:44:10;;;;;;;18.52;7.03;;;13.00;99.90;;;;;;5017690;28;20563;-85
2022/05/16 00:46:37;;;;;;;19.90;7.07;;;12.90;99.90;;;;;;5017734;28;20046;-85
2022/05/16 00:49:07;;;;;;;13.70;7.18;;;12.90;99.90;;;;;;5017649;28;20038;-85
2022/05/16 00:51:43;;;;;;;18.38;7.05;;;12.80;99.90;;;;;;5017435;28;20490;-85
2022/05/16 00:54:13;;;;;;;16.42;6.90;;;12.80;99.90;;;;;;5017611;28;20042;-85
2022/05/16 00:56:39;;;;;;;20.17;7.78;;;12.80;99.90;;;;;;4999785;28;20095;-85
2022/05/16 00:59:05;;;;;;;13.70;6.68;;;12.70;99.90;;;;;;5017282;28;20236;-85
2022/05/16 01:07:03;;;;;;;12.68;6.80;;;12.60;99.90;;;;;;5017350;28;20087;-85
2022/05/16 01:09:30;;;;;;;17.67;6.93;;;12.60;99.90;;;;;;4999938;28;20049;-85
2022/05/16 01:11:55;;;;;;;17.65;7.55;;;12.60;99.90;;;;;;4999830;28;20041;-85
2022/05/16 01:14:44;;;;;;;15.48;6.65;;;12.50;99.90;;;;;;5017184;28;20374;-85
2022/05/16 01:17:11;;;;;;;14.75;7.10;;;12.50;99.90;;;;;;5017064;28;20049;-85
2022/05/16 01:19:37;;;;;;;16.27;6.50;;;12.40;99.90;;;;;;5017230;28;20045;-84
2022/05/16 01:22:33;;;;;;;13.18;6.78;;;12.40;99.90;;;;;;5017112;28;20393;-84
2022/05/16 01:25:24;;;;;;;15.25;7.00;;;12.40;99.90;;;;;;4999305;28;20126;-84
2022/05/16 01:28:04;;;;;;;13.55;6.25;;;12.40;99.90;;;;;;4992479;28;20093;-84
2022/05/16 01:30:36;;;;;;;15.90;7.07;;;12.40;99.90;;;;;;5016936;28;20041;-85
2022/05/16 01:33:02;;;;;;;12.55;6.35;;;12.40;99.90;;;;;;4999348;28;20065;-84
2022/05/16 01:35:31;;;;;;;14.27;6.47;;;12.40;99.90;;;;;;4998686;28;20034;-84
2022/05/16 01:40:42;;;;;;;12.20;6.32;;;12.40;99.90;;;;;;4999100;28;20053;-84
2022/05/16 01:43:09;;;;;;;14.82;6.82;;;12.40;99.90;;;;;;5016629;28;20054;-85
2022/05/16 01:45:36;;;;;;;15.40;6.53;;;12.40;99.90;;;;;;5015183;28;20049;-84
2022/05/16 01:48:02;;;;;;;13.35;6.00;;;12.30;99.90;;;;;;4998869;28;20173;-84
2022/05/16 01:50:28;;;;;;;10.43;5.50;;;12.30;99.90;;;;;;4998856;28;20050;-85
2022/05/16 01:52:54;;;;;;;13.75;6.82;;;12.40;99.90;;;;;;4998767;28;20061;-85
2022/05/16 01:55:19;;;;;;;13.10;6.47;;;12.30;99.90;;;;;;4997961;28;20046;-85
2022/05/16 01:57:45;;;;;;;11.27;5.90;;;12.30;99.90;;;;;;5016323;28;20095;-85
2022/05/16 02:00:13;;;;;;;15.68;6.50;;;12.30;99.90;;;;;;4998925;28;20156;-85
2022/05/16 02:02:41;;;;;;;11.90;5.55;;;12.30;99.90;;;;;;4998591;28;20482;-84
2022/05/16 02:05:07;;;;;;;10.48;6.00;;;12.30;99.90;;;;;;4998879;28;20049;-84
2022/05/16 02:07:33;;;;;;;13.80;7.13;;;12.30;99.90;;;;;;5016336;28;20045;-84
2022/05/16 02:09:59;;;;;;;10.55;5.95;;;12.30;99.90;;;;;;4998607;28;20049;-83
2022/05/16 02:12:25;;;;;;;14.63;5.75;;;12.30;99.90;;;;;;4998562;28;20042;-83
2022/05/16 02:14:54;;;;;;;10.50;5.70;;;12.30;99.90;;;;;;5016122;28;20045;-83
2022/05/16 02:17:19;;;;;;;10.98;5.40;;;12.30;99.90;;;;;;4998357;28;20108;-84
2022/05/16 02:19:45;;;;;;;11.88;5.20;;;12.30;99.90;;;;;;4998422;28;20050;-83
2022/05/16 02:24:54;;;;;;;12.65;5.03;;;12.30;99.90;;;;;;4998336;28;20563;-82
2022/05/16 02:27:20;;;;;;;9.68;5.43;;;12.30;99.90;;;;;;5015822;28;20077;-82
2022/05/16 02:29:46;;;;;;;10.75;5.05;;;12.20;99.90;;;;;;4998121;28;20045;-82
2022/05/16 02:32:13;;;;;;;8.50;4.63;;;12.30;99.90;;;;;;5014447;28;20037;-83
2022/05/16 02:34:39;;;;;;;12.25;5.00;;;12.30;99.90;;;;;;4997997;28;20088;-84
2022/05/16 02:37:07;;;;;;;9.10;4.43;;;12.20;99.90;;;;;;4997765;28;20049;-84
2022/05/16 02:39:33;;;;;;;9.90;4.00;;;12.30;99.90;;;;;;5015618;28;20042;-84
2022/05/16 02:41:59;;;;;;;10.57;4.32;;;12.20;99.90;;;;;;4997851;28;20052;-84
2022/05/16 02:44:26;;;;;;;8.23;4.10;;;12.10;99.90;;;;;;5015618;28;20038;-84
2022/05/16 02:46:51;;;;;;;10.25;4.10;;;12.20;99.90;;;;;;5015695;28;20050;-85
2022/05/16 02:49:17;;;;;;;12.00;3.72;;;12.20;99.90;;;;;;4997914;28;20049;-85
2022/05/16 02:51:43;;;;;;;8.43;3.75;;;12.10;99.90;;;;;;4998085;28;20046;-85
2022/05/16 02:54:08;;;;;;;10.48;4.88;;;12.10;99.90;;;;;;5015354;28;20442;-85
2022/05/16 02:56:34;;;;;;;10.30;3.60;;;12.10;99.90;;;;;;5015147;28;20460;-85
2022/05/16 02:59:00;;;;;;;11.80;3.80;;;12.10;99.90;;;;;;4997877;28;20088;-85
2022/05/16 03:01:26;;;;;;;9.48;4.18;;;12.00;99.90;;;;;;4997514;28;20485;-85
2022/05/16 03:03:52;;;;;;;9.85;4.13;;;12.00;99.90;;;;;;4997811;28;20084;-85
2022/05/16 03:06:18;;;;;;;7.90;3.80;;;12.00;99.90;;;;;;4997426;28;20046;-85
2022/05/16 03:08:44;;;;;;;8.20;3.53;;;12.00;99.90;;;;;;4997478;28;20049;-85
2022/05/16 03:11:10;;;;;;;5.72;3.20;;;12.00;99.90;;;;;;5015245;28;20045;-85
2022/05/16 03:13:36;;;;;;;8.75;3.78;;;12.00;99.90;;;;;;4997476;28;20048;-85
2022/05/16 03:16:02;;;;;;;7.80;3.42;;;11.90;99.90;;;;;;4997141;28;20485;-84
2022/05/16 03:18:29;;;;;;;9.93;5.00;;;11.90;99.90;;;;;;4997266;28;20046;-84
2022/05/16 03:20:55;;;;;;;7.60;3.55;;;11.90;99.90;;;;;;4997114;28;20053;-84
2022/05/16 03:23:21;;;;;;;9.43;3.75;;;11.90;99.90;;;;;;4996732;28;20137;-84
2022/05/16 03:25:47;;;;;;;7.95;3.75;;;11.90;99.90;;;;;;5014199;28;20042;-84
2022/05/16 03:28:12;;;;;;;9.85;4.13;;;11.90;99.90;;;;;;4996597;28;20046;-84
2022/05/16 03:30:39;;;;;;;9.38;3.78;;;11.90;99.90;;;;;;4996437;28;20126;-85
2022/05/16 03:33:05;;;;;;;9.65;4.10;;;11.90;99.90;;;;;;5013853;28;20042;-85
2022/05/16 03:35:31;;;;;;;7.97;3.65;;;11.90;99.90;;;;;;5012860;28;20037;-84
2022/05/16 03:37:57;;;;;;;8.57;3.33;;;11.80;99.90;;;;;;4996894;28;20060;-85
2022/05/16 03:43:07;;;;;;;7.47;3.67;;;11.90;99.90;;;;;;4996465;28;20457;-85
2022/05/16 03:45:32;;;;;;;8.50;3.95;;;11.90;99.90;;;;;;5014252;28;20133;-85
2022/05/16 03:47:58;;;;;;;7.60;3.83;;;11.90;99.90;;;;;;4996433;28;20049;-84
2022/05/16 03:50:26;;;;;;;10.85;3.92;;;11.90;99.90;;;;;;5014264;28;20049;-85
2022/05/16 03:52:52;;;;;;;8.48;3.30;;;11.90;99.90;;;;;;5014199;28;20054;-84
2022/05/16 03:55:18;;;;;;;10.73;3.63;;;11.90;99.90;;;;;;4996603;28;20072;-84
2022/05/16 03:57:44;;;;;;;5.93;3.17;;;11.90;99.90;;;;;;5014148;28;20112;-84
2022/05/16 04:00:12;;;;;;;8.77;3.63;;;11.90;99.90;;;;;;4996629;28;20379;-84
2022/05/16 04:02:40;;;;;;;6.90;4.03;;;11.90;99.90;;;;;;5013802;28;20099;-84
2022/05/16 04:05:06;;;;;;;8.57;3.72;;;11.90;99.90;;;;;;4996240;28;20481;-84
2022/05/16 04:07:33;;;;;;;7.82;3.47;;;11.90;99.90;;;;;;5014073;28;20044;-84
2022/05/16 04:10:00;;;;;;;9.02;3.88;;;12.00;99.90;;;;;;4996419;28;20053;-84
2022/05/16 04:12:25;;;;;;;8.60;4.10;;;12.00;99.90;;;;;;4996159;28;20659;-84
2022/05/16 04:14:52;;;;;;;11.38;3.80;;;12.00;99.90;;;;;;4996159;28;20553;-84
2022/05/16 04:17:18;;;;;;;5.82;3.03;;;12.00;99.90;;;;;;4995297;28;20053;-85
2022/05/16 04:19:44;;;;;;;8.15;3.47;;;12.10;99.90;;;;;;4996420;28;20046;-83
2022/05/16 04:22:09;;;;;;;12.57;4.00;;;12.20;99.90;;;;;;5013927;28;20504;-84
2022/05/16 04:24:35;;;;;;;8.55;3.72;;;12.20;99.90;;;;;;4996419;28;20103;-84
2022/05/16 04:27:01;;;;;;;8.45;3.85;;;12.30;99.90;;;;;;5013734;28;20038;-84
2022/05/16 04:29:27;;;;;;;6.95;4.35;;;12.40;99.90;;;;;;5013667;28;20057;-84
2022/05/16 04:31:53;;;;;;;9.93;4.47;;;12.50;99.90;;;;;;4996073;28;20052;-84
2022/05/16 04:34:19;;;;;;;6.47;4.03;;;12.50;99.90;;;;;;4995968;28;20072;-84
2022/05/16 04:36:44;;;;;;;9.65;3.75;;;12.60;99.90;;;;;;5013106;28;20112;-83
2022/05/16 04:39:10;;;;;;;8.23;3.65;;;12.70;99.90;;;;;;4995976;28;20049;-84
2022/05/16 04:44:20;;;;;;;10.00;3.22;;;12.90;99.90;;;;;;5013469;28;20046;-84
2022/05/16 04:46:46;;;;;;;7.53;3.25;;;13.10;99.90;;;;;;5013469;28;20449;-84
2022/05/16 04:49:11;;;;;;;9.98;3.70;;;13.20;99.90;;;;;;4996076;28;20124;-84
2022/05/16 04:51:37;;;;;;;7.70;3.22;;;13.20;99.90;;;;;;4995837;28;20547;-84
2022/05/16 04:54:03;;;;;;;8.48;3.83;;;13.30;99.90;;;;;;4996085;28;20081;-84
2022/05/16 04:56:29;;;;;;;7.97;3.28;;;13.30;99.90;;;;;;5013551;28;20421;-84
2022/05/16 04:58:54;;;;;;;7.03;3.30;;;13.30;99.90;;;;;;4995880;28;20077;-84
2022/05/16 05:01:20;;;;;;;8.05;3.47;;;13.40;99.90;;;;;;5013533;28;20456;-85
2022/05/16 05:03:45;;;;;;;8.38;3.60;;;13.40;99.90;;;;;;4995653;28;20486;-85
2022/05/16 05:06:11;;;;;;;7.82;3.70;;;13.40;99.90;;;;;;4995744;28;20054;-85
2022/05/16 05:08:37;;;;;;;5.90;3.38;;;13.30;99.90;;;;;;4995650;28;20046;-84
2022/05/16 05:16:31;;;;;;;8.02;3.30;;;13.10;99.90;;;;;;4995483;28;20050;-85
2022/05/16 05:18:56;;;;;;;10.85;3.38;;;13.20;99.90;;;;;;4995542;28;20053;-84
2022/05/16 05:21:22;;;;;;;9.20;3.70;;;13.10;99.90;;;;;;5013342;28;20049;-82
2022/05/16 05:23:48;;;;;;;9.20;3.80;;;13.10;99.90;;;;;;4995471;28;20108;-82
2022/05/16 05:26:14;;;;;;;8.07;3.53;;;13.30;99.90;;;;;;4995659;28;20085;-82
2022/05/16 05:28:41;;;;;;;8.95;3.65;;;13.50;99.90;;;;;;4996843;28;20141;-83
2022/05/16 05:31:15;;;;;;;8.88;3.55;;;13.60;99.90;;;;;;4999280;28;20099;-83
2022/05/16 05:33:41;;;;;;;8.02;3.65;;;13.90;99.90;;;;;;5016524;28;20429;-84
2022/05/16 05:36:08;;;;;;;8.93;3.50;;;14.10;99.90;;;;;;4998852;28;20076;-84
2022/05/16 05:38:36;;;;;;;7.88;3.33;;;14.30;99.90;;;;;;4998778;28;20057;-83
2022/05/16 05:41:03;;;;;;;8.13;3.50;;;14.50;99.90;;;;;;4998839;28;20046;-84
2022/05/16 05:43:29;;;;;;;7.40;3.25;;;14.90;99.90;;;;;;4999119;28;20045;-84
2022/05/16 05:45:55;;;;;;;6.90;3.90;;;15.00;99.90;;;;;;4998874;28;20478;-83
2022/05/16 05:48:20;;;;;;;10.50;4.32;;;15.10;99.90;;;;;;5016519;28;20042;-84
2022/05/16 05:50:46;;;;;;;7.68;3.75;;;15.20;99.90;;;;;;5016308;28;20046;-83
2022/05/16 05:53:11;;;;;;;10.00;3.60;;;15.50;99.90;;;;;;5016405;28;20494;-84
2022/05/16 05:55:37;;;;;;;10.57;3.88;;;15.40;99.90;;;;;;4998810;28;20046;-85
2022/05/16 05:58:03;;;;;;;9.88;4.05;;;15.50;99.90;;;;;;4998655;28;20393;-85
2022/05/16 06:00:28;;;;;;;8.55;3.90;;;15.30;99.90;;;;;;4998607;28;20089;-85
2022/05/16 06:02:54;;;;;;;9.93;3.40;;;15.10;99.90;;;;;;4998822;28;20053;-85
2022/05/16 06:05:21;;;;;;;8.85;3.40;;;14.90;99.90;;;;;;4998612;28;20042;-84
2022/05/16 06:07:47;;;;;;;9.20;4.30;;;14.80;99.90;;;;;;5015814;28;20496;-84
2022/05/16 06:10:13;;;;;;;10.23;3.75;;;14.70;99.90;;;;;;4998560;28;20046;-84
2022/05/16 06:12:39;;;;;;;8.73;3.60;;;14.70;99.90;;;;;;5014542;28;20426;-83
2022/05/16 06:15:07;;;;;;;8.07;3.90;;;14.70;99.90;;;;;;5015755;28;20049;-84
2022/05/16 06:17:35;;;;;;;7.78;3.80;;;14.60;99.90;;;;;;4998107;28;20060;-83
2022/05/16 06:20:02;;;;;;;9.63;4.30;;;14.70;99.90;;;;;;5015932;28;20073;-84
2022/05/16 06:22:34;;;;;;;11.70;3.78;;;14.90;99.90;;;;;;5015815;28;20077;-84
2022/05/16 06:27:48;;;;;;;8.30;3.83;;;15.10;99.90;;;;;;4997960;28;20060;-84
2022/05/16 06:30:15;;;;;;;11.68;4.30;;;15.10;99.90;;;;;;4997974;28;20050;-83
2022/05/16 06:32:41;;;;;;;7.43;3.75;;;15.10;99.90;;;;;;4998066;28;20100;-83
2022/05/16 06:35:07;;;;;;;10.10;4.50;;;15.20;99.90;;;;;;4998055;28;20054;-83
2022/05/16 06:37:33;;;;;;;8.38;4.65;;;15.20;99.90;;;;;;4997580;28;20494;-82
2022/05/16 06:39:58;;;;;;;10.02;4.00;;;15.30;99.90;;;;;;4997343;28;20052;-82
2022/05/16 06:42:24;;;;;;;12.00;4.22;;;15.60;99.90;;;;;;4997982;28;20088;-82
2022/05/16 06:44:52;;;;;;;9.45;3.95;;;15.90;99.90;;;;;;5005462;28;20048;-80
2022/05/16 06:47:18;;;;;;;8.65;3.72;;;16.20;99.90;;;;;;5017488;28;20042;-83
2022/05/16 06:49:44;;;;;;;11.23;4.15;;;16.50;99.90;;;;;;5014979;28;20397;-80
2022/05/16 06:52:09;;;;;;;9.20;3.85;;;16.70;99.90;;;;;;4997292;28;20041;-80
2022/05/16 06:54:35;;;;;;;9.90;3.85;;;16.70;99.90;;;;;;5013862;28;20081;-81
2022/05/16 06:57:01;;;;;;;9.75;4.28;;;16.70;99.90;;;;;;5014686;28;20042;-80
2022/05/16 06:59:27;;;;;;;9.80;4.18;;;16.70;99.90;;;;;;4997448;28;20046;-80
2022/05/16 07:01:52;;;;;;;9.05;3.63;;;16.70;99.90;;;;;;4997119;28;20042;-81
2022/05/16 07:04:18;;;;;;;9.07;4.03;;;16.70;99.90;;;;;;4997175;28;20046;-80
2022/05/16 07:06:44;;;;;;;11.02;4.43;;;16.80;99.90;;;;;;4997245;28;20557;-81
2022/05/16 07:09:10;;;;;;;9.32;4.57;;;16.80;99.90;;;;;;4997686;28;20132;-81
2022/05/16 07:11:36;;;;;;;11.82;4.97;;;16.90;99.90;;;;;;4997165;28;20045;-81
2022/05/16 07:14:01;;;;;;;12.50;4.30;;;16.80;99.90;;;;;;5013258;28;20041;-81
2022/05/16 07:16:27;;;;;;;9.38;4.35;;;17.00;99.90;;;;;;4996863;28;20046;-81
2022/05/16 07:18:52;;;;;;;11.80;4.43;;;17.00;99.90;;;;;;4996968;28;20052;-84
2022/05/16 07:21:18;;;;;;;8.85;4.78;;;17.00;99.90;;;;;;4996645;28;20072;-80
2022/05/16 07:23:45;;;;;;;12.90;3.90;;;17.00;99.90;;;;;;4996877;28;20100;-81
2022/05/16 07:28:55;;;;;;;8.68;4.07;;;17.20;99.90;;;;;;5007453;28;20212;-81
2022/05/16 07:31:21;;;;;;;12.82;5.10;;;17.50;99.90;;;;;;5016483;28;20176;-83
2022/05/16 07:33:47;;;;;;;10.68;4.45;;;17.70;99.90;;;;;;5016486;28;20503;-82
2022/05/16 07:36:12;;;;;;;10.52;4.63;;;17.90;99.90;;;;;;5025342;28;20053;-81
2022/05/16 07:38:38;;;;;;;10.32;4.22;;;18.20;99.90;;;;;;5014205;28;20041;-81
2022/05/16 07:41:04;;;;;;;14.25;5.80;;;18.40;99.90;;;;;;4996716;28;20463;-80
2022/05/16 07:43:30;;;;;;;11.30;4.70;;;18.60;99.90;;;;;;5014145;28;20037;-81
2022/05/16 07:45:56;;;;;;;12.45;4.35;;;18.90;99.90;;;;;;4996364;28;20084;-81
2022/05/16 07:48:22;;;;;;;10.75;5.15;;;19.10;99.90;;;;;;4996572;28;20068;-81
2022/05/16 07:50:48;;;;;;;11.82;4.88;;;19.30;99.90;;;;;;4996241;28;20405;-81
2022/05/16 07:53:15;;;;;;;13.73;4.50;;;19.50;99.90;;;;;;4995634;28;20077;-81
2022/05/16 07:55:46;;;;;;;19.13;4.70;;;19.60;99.90;;;;;;4997052;28;20056;-82
2022/05/16 07:58:12;;;;;;;11.35;4.57;;;19.80;99.90;;;;;;5015872;28;20144;-81
2022/05/16 08:00:37;;;;;;;13.52;4.70;;;19.80;99.90;;;;;;5005605;28;20484;-81
2022/05/16 08:03:04;;;;;;;10.40;4.50;;;19.90;99.90;;;;;;5013907;28;20122;-80
2022/05/16 08:05:30;;;;;;;10.73;4.40;;;19.80;99.90;;;;;;4996094;28;20084;-81
2022/05/16 08:10:41;;;;;;;11.35;4.85;;;19.80;99.90;;;;;;5033563;28;20056;-81
2022/05/16 08:13:09;;;;;;;10.10;4.85;;;20.00;99.90;;;;;;5014684;28;20061;-81
2022/05/16 08:15:37;;;;;;;9.23;4.72;;;20.00;99.90;;;;;;5014062;28;20056;-81
2022/05/16 08:18:05;;;;;;;10.15;4.82;;;20.20;99.90;;;;;;5015162;28;20049;-81
2022/05/16 08:20:33;;;;;;;13.77;4.80;;;20.40;99.90;;;;;;5015423;28;20049;-81
2022/05/16 08:22:59;;;;;;;9.73;4.78;;;20.60;99.90;;;;;;5033348;28;20045;-81
2022/05/16 08:25:25;;;;;;;13.18;5.15;;;20.70;99.90;;;;;;5015788;28;20401;-81
2022/05/16 08:27:50;;;;;;;11.10;4.80;;;20.70;99.90;;;;;;5014711;28;20480;-81
2022/05/16 08:30:18;;;;;;;12.98;4.65;;;20.80;99.90;;;;;;5015386;28;20088;-81
2022/05/16 08:32:44;;;;;;;12.20;5.07;;;20.80;99.90;;;;;;5033404;28;20091;-81
2022/05/16 08:35:12;;;;;;;10.60;4.90;;;20.80;99.90;;;;;;5033083;28;20049;-80
2022/05/16 08:40:27;;;;;;;17.02;4.53;;;20.90;99.90;;;;;;5015563;28;20088;-82
2022/05/16 08:43:05;;;;;;;11.00;4.95;;;21.10;99.90;;;;;;5015666;28;20060;-82
2022/05/16 08:45:34;;;;;;;14.07;5.35;;;21.20;99.90;;;;;;5015335;28;20473;-86
2022/05/16 08:48:14;;;;;;;12.40;5.15;;;21.20;99.90;;;;;;5015328;28;20123;-81
2022/05/16 08:50:41;;;;;;;15.77;5.25;;;21.20;99.90;;;;;;5027860;28;20056;-88
2022/05/16 08:53:13;;;;;;;11.45;5.43;;;21.10;99.90;;;;;;5025722;28;20089;-82
2022/05/16 08:55:50;;;;;;;11.82;5.35;;;20.90;99.90;;;;;;4995642;28;20437;-81
2022/05/16 08:58:24;;;;;;;12.02;4.75;;;21.00;99.90;;;;;;5016046;28;20049;-90
2022/05/16 09:01:01;;;;;;;10.50;5.00;;;21.30;99.90;;;;;;5035142;28;20108;-85
2022/05/16 09:03:43;;;;;;;12.93;5.68;;;21.80;99.90;;;;;;5036369;28;20098;-90
2022/05/16 09:06:15;;;;;;;10.70;5.07;;;22.00;99.90;;;;;;5031790;28;20045;-84
2022/05/16 09:09:03;;;;;;;16.13;6.22;;;22.20;99.90;;;;;;5038803;28;20053;-84
2022/05/16 09:11:41;;;;;;;14.27;6.07;;;22.30;99.90;;;;;;5038944;28;20055;-82
2022/05/16 09:14:17;;;;;;;12.20;5.85;;;22.50;99.90;;;;;;5038934;28;20097;-82
2022/05/16 09:16:55;;;;;;;14.57;5.72;;;22.40;99.90;;;;;;5038505;28;20409;-82
2022/05/16 09:19:42;;;;;;;13.30;5.75;;;22.40;99.90;;;;;;5038689;28;20052;-89
2022/05/16 09:22:30;;;;;;;15.20;6.20;;;22.40;99.90;;;;;;5038459;28;20052;-85
2022/05/16 09:25:09;;;;;;;15.15;6.78;;;22.40;99.90;;;;;;5029920;28;20048;-83
2022/05/16 09:30:28;;;;;;;19.25;6.80;;;22.40;99.90;;;;;;5038195;28;20063;-82
2022/05/16 09:33:18;;;;;;;14.65;5.88;;;22.70;99.90;;;;;;5038550;28;20045;-88
2022/05/16 09:36:08;;;;;;;13.90;5.55;;;23.00;99.90;;;;;;5038044;28;20152;-82
2022/05/16 09:38:34;;;;;;;16.88;6.22;;;23.40;99.90;;;;;;5038565;28;20052;-82
2022/05/16 09:40:59;;;;;;;16.80;7.70;;;23.40;99.90;;;;;;5038065;28;20392;-82
2022/05/16 09:43:31;;;;;;;20.67;7.22;;;23.50;99.90;;;;;;5055965;28;20053;-82
2022/05/16 09:46:34;;;;;;;17.23;6.22;;;23.70;99.90;;;;;;5037953;28;20056;-82
2022/05/16 09:49:30;;;;;;;14.23;6.15;;;23.90;99.90;;;;;;5035368;28;20141;-82
2022/05/16 09:51:59;;;;;;;14.10;6.18;;;24.00;99.90;;;;;;5033407;28;20061;-82
2022/05/16 09:54:33;;;;;;;20.33;7.18;;;24.10;99.90;;;;;;5055795;28;20040;-87
2022/05/16 09:57:15;;;;;;;12.38;6.20;;;24.10;98.70;;;;;;5050516;28;20052;-81
2022/05/16 09:59:43;;;;;;;15.50;7.00;;;24.20;99.90;;;;;;5016252;28;20045;-82
2022/05/16 10:02:35;;;;;;;14.43;7.07;;;24.20;97.50;;;;;;4998536;28;20124;-81
2022/05/16 10:05:24;;;;;;;13.17;5.50;;;24.40;99.90;;;;;;4995891;28;20093;-82
2022/05/16 10:08:00;;;;;;;14.93;6.93;;;24.70;99.90;;;;;;4998535;28;20340;-82
2022/05/16 10:10:32;;;;;;;16.73;6.53;;;24.90;99.90;;;;;;5015784;28;20398;-82
2022/05/16 10:12:58;;;;;;;13.18;6.18;;;25.00;98.60;;;;;;4998201;28;20046;-82
2022/05/16 10:15:24;;;;;;;17.08;6.70;;;25.00;98.40;;;;;;4996979;28;20045;-81
2022/05/16 10:17:52;;;;;;;14.63;6.97;;;25.10;98.40;;;;;;5015451;28;20075;-84
2022/05/16 10:20:40;;;;;;;18.02;6.80;;;25.20;94.10;;;;;;5014485;28;20397;-82
2022/05/16 10:23:12;;;;;;;18.48;6.13;;;25.40;97.40;;;;;;4998145;28;20069;-82
2022/05/16 10:25:46;;;;;;;16.27;6.65;;;25.50;97.80;;;;;;4997907;28;20053;-82
2022/05/16 10:28:17;;;;;;;18.95;6.75;;;25.60;96.90;;;;;;5014392;28;20101;-81
2022/05/16 10:33:32;;;;;;;18.58;7.53;;;25.80;94.30;;;;;;4997691;28;20065;-81
2022/05/16 10:36:08;;;;;;;15.63;6.80;;;26.00;94.70;;;;;;4997648;28;20061;-81
2022/05/16 10:38:47;;;;;;;16.40;6.78;;;26.20;91.80;;;;;;5015493;28;20054;-82
2022/05/16 10:41:30;;;;;;;19.27;6.78;;;26.40;94.50;;;;;;5014226;28;20481;-82
2022/05/16 10:44:01;;;;;;;15.02;6.85;;;26.30;88.90;;;;;;4997767;28;20406;-89
2022/05/16 10:46:34;;;;;;;18.60;6.85;;;26.40;90.50;;;;;;4997937;28;20127;-81
2022/05/16 10:49:12;;;;;;;13.43;6.63;;;26.40;88.90;;;;;;5015166;28;20172;-81
2022/05/16 10:51:47;;;;;;;23.00;7.93;;;26.60;93.80;;;;;;4997688;28;20115;-81
2022/05/16 10:54:19;;;;;;;15.77;7.13;;;26.20;85.20;;;;;;5013906;28;20088;-88
2022/05/16 10:57:13;;;;;;;16.50;7.10;;;26.10;86.00;;;;;;5013854;28;20055;-89
2022/05/16 11:00:06;;;;;;;16.48;6.93;;;25.80;82.30;;;;;;5015025;28;20077;-88
2022/05/16 11:02:56;;;;;;;19.88;7.32;;;25.40;81.10;;;;;;5015416;28;20054;-87
2022/05/16 11:05:42;;;;;;;19.63;7.60;;;25.20;90.60;;;;;;5017000;28;20068;-89
2022/05/16 11:08:25;;;;;;;16.92;6.63;;;25.30;92.70;;;;;;4997292;28;20394;-88
2022/05/16 11:11:19;;;;;;;20.05;7.53;;;25.10;94.60;;;;;;5014743;28;20050;-88
2022/05/16 11:13:59;;;;;;;18.50;6.82;;;25.20;94.70;;;;;;5014529;28;20046;-90
2022/05/16 11:16:32;;;;;;;22.88;8.85;;;25.20;94.70;;;;;;4996945;28;20092;-86
2022/05/16 11:19:13;;;;;;;30.23;9.07;;;25.10;91.20;;;;;;4997148;28;20096;-86
2022/05/16 11:22:06;;;;;;;20.60;8.00;;;25.20;93.00;;;;;;5014421;28;20395;-90
2022/05/16 11:24:35;;;;;;;21.55;7.78;;;25.10;94.10;;;;;;4997040;28;20100;-85
2022/05/16 11:27:15;;;;;;;23.17;8.07;;;25.00;95.70;;;;;;4996574;28;20127;-85
2022/05/16 11:30:03;;;;;;;19.77;7.43;;;24.90;92.30;;;;;;4996998;28;20053;-86
2022/05/16 11:32:57;;;;;;;17.38;8.38;;;24.90;95.50;;;;;;4996797;28;20057;-85
2022/05/16 11:35:36;;;;;;;18.35;7.85;;;24.80;92.10;;;;;;4996501;28;20054;-88
2022/05/16 11:38:17;;;;;;;22.77;7.57;;;24.80;93.80;;;;;;4996481;28;20049;-84
2022/05/16 11:41:19;;;;;;;17.38;7.38;;;24.90;93.60;;;;;;4996802;28;20050;-84
2022/05/16 11:43:48;;;;;;;15.90;7.37;;;24.90;92.80;;;;;;5014181;28;20104;-85
2022/05/16 11:46:14;;;;;;;15.93;7.70;;;25.00;95.40;;;;;;5014012;28;20283;-85
2022/05/16 11:49:21;;;;;;;20.88;7.93;;;24.80;93.40;;;;;;4996593;28;20054;-85
2022/05/16 11:52:05;;;;;;;21.05;7.70;;;24.90;92.10;;;;;;5014099;28;20088;-84
2022/05/16 11:54:39;;;;;;;15.45;6.90;;;24.80;94.70;;;;;;4996559;28;20050;-82
2022/05/16 12:03:06;;;;;;;16.95;8.32;;;24.90;97.40;;;;;;5013777;28;20057;-82
2022/05/16 12:05:43;;;;;;;18.92;7.22;;;24.90;95.90;;;;;;5013686;28;20038;-81
2022/05/16 12:08:37;;;;;;;18.63;7.72;;;24.90;97.20;;;;;;4996120;28;20046;-82
2022/05/16 12:11:03;;;;;;;19.00;8.15;;;24.90;99.10;;;;;;4996433;28;20100;-81
2022/05/16 12:13:34;;;;;;;15.23;7.43;;;24.90;97.20;;;;;;4996015;28;20046;-81
2022/05/16 12:16:12;;;;;;;14.23;8.48;;;24.90;96.80;;;;;;5013626;28;20521;-80
2022/05/16 12:18:39;;;;;;;17.10;8.30;;;25.00;95.00;;;;;;4995798;28;20053;-81
2022/05/16 12:21:30;;;;;;;18.33;8.52;;;25.00;98.20;;;;;;4996069;28;20061;-81
2022/05/16 12:23:59;;;;;;;14.75;8.13;;;25.20;99.10;;;;;;5013786;28;20045;-81
2022/05/16 12:26:28;;;;;;;16.73;8.27;;;25.30;98.50;;;;;;4995810;28;20124;-82
2022/05/16 12:29:09;;;;;;;24.23;9.05;;;25.50;95.70;;;;;;4995756;28;20049;-81
2022/05/16 12:31:50;;;;;;;26.67;8.82;;;25.70;96.80;;;;;;5013790;28;20129;-81
2022/05/16 12:34:38;;;;;;;29.73;10.20;;;25.70;95.60;;;;;;4996249;28;20547;-81
2022/05/16 12:37:10;;;;;;;16.80;9.23;;;25.80;92.90;;;;;;4995678;28;20321;-81
2022/05/16 12:40:00;;;;;;;17.67;9.82;;;26.00;95.10;;;;;;4999316;28;20163;-81
2022/05/16 12:43:00;;;;;;;17.08;10.13;;;26.10;93.80;;;;;;4999876;28;20128;-81
2022/05/16 12:45:36;;;;;;;25.42;9.65;;;26.00;92.10;;;;;;5017477;28;20121;-81
2022/05/16 12:48:29;;;;;;;25.15;10.45;;;25.90;93.50;;;;;;4999852;28;20116;-81
2022/05/16 12:51:10;;;;;;;23.83;11.32;;;25.70;94.10;;;;;;5000080;28;20062;-81
2022/05/16 12:53:57;;;;;;;27.08;10.63;;;25.60;94.80;;;;;;4999676;28;20042;-81
2022/05/16 12:56:35;;;;;;;20.35;10.00;;;25.50;96.00;;;;;;5017179;28;20504;-82
2022/05/16 12:59:27;;;;;;;27.63;11.30;;;25.40;95.60;;;;;;5017259;28;20045;-81
2022/05/16 13:02:21;;;;;;;21.35;11.02;;;25.40;98.20;;;;;;4999878;28;20085;-81
2022/05/16 13:04:55;;;;;;;25.77;10.60;;;25.50;97.50;;;;;;5017370;28;20111;-81
2022/05/16 13:07:51;;;;;;;24.80;11.48;;;25.50;98.80;;;;;;5017289;28;20064;-82
2022/05/16 13:10:35;;;;;;;23.38;10.88;;;25.50;98.80;;;;;;5017054;28;20041;-82
2022/05/16 13:13:18;;;;;;;20.77;11.20;;;25.70;99.90;;;;;;4999650;28;20499;-82
2022/05/16 13:15:57;;;;;;;19.30;10.77;;;25.60;98.20;;;;;;4999363;28;20551;-81
2022/05/16 13:18:28;;;;;;;25.10;10.73;;;25.50;99.90;;;;;;4999457;28;20052;-81
2022/05/16 13:21:01;;;;;;;21.27;11.07;;;25.50;99.90;;;;;;5016842;28;20054;-81
2022/05/16 13:23:28;;;;;;;27.42;10.95;;;25.40;99.90;;;;;;5029546;28;20241;-82
2022/05/16 13:31:34;;;;;;;32.47;12.20;;;25.00;99.90;;;;;;5038366;28;20412;-82
2022/05/16 13:34:04;;;;;;;26.48;12.50;;;25.20;99.90;;;;;;5056562;28;20452;-82
2022/05/16 13:36:31;;;;;;;32.03;14.07;;;25.10;99.90;;;;;;5038220;28;20053;-82
2022/05/16 13:38:59;;;;;;;34.25;17.10;;;25.20;99.90;;;;;;5056293;28;20060;-81
2022/05/16 13:41:27;;;;;;;39.65;16.92;;;25.10;99.90;;;;;;5038549;28;20037;-82
2022/05/16 13:43:53;;;;;;;28.55;15.98;;;25.00;99.90;;;;;;5038438;28;20116;-82
2022/05/16 13:46:20;;;;;;;27.15;15.45;;;25.10;99.90;;;;;;5056605;28;20528;-82